Time;durP1;ratioP1;P1;durP2;ratioP2;P2;SDS_P1;SDS_P2;PMS_P1;PMS_P2;Temp;Humidity;BMP_temperature;BMP_pressure;BME280_temperature;BME280_humidity;BME280_pressure;Samples;Min_cycle;Max_cycle;Signal;HPM_P1;HPM_P2
2023/08/10 00:00:25;;;;;;;1.35;1.35;;;16.70;99.90;;;;;;4172824;28;20052;-58
2023/08/10 00:02:45;;;;;;;1.55;1.55;;;16.60;99.90;;;;;;4173800;28;20083;-58
2023/08/10 00:05:05;;;;;;;1.10;1.10;;;16.60;99.90;;;;;;4174209;28;20048;-58
2023/08/10 00:07:25;;;;;;;1.27;1.10;;;16.50;99.90;;;;;;4172359;28;20092;-58
2023/08/10 00:09:44;;;;;;;1.25;1.23;;;16.50;99.90;;;;;;4173758;28;20399;-58
2023/08/10 00:12:06;;;;;;;2.05;1.08;;;16.50;99.90;;;;;;4172528;28;20045;-58
2023/08/10 00:14:27;;;;;;;2.40;1.20;;;16.30;99.90;;;;;;4165082;28;20056;-58
2023/08/10 00:16:47;;;;;;;1.10;1.00;;;16.30;99.90;;;;;;4173151;28;20107;-58
2023/08/10 00:19:08;;;;;;;1.08;1.08;;;16.40;99.90;;;;;;4173410;28;20061;-58
2023/08/10 00:21:28;;;;;;;2.78;1.08;;;16.40;99.90;;;;;;4174120;28;20119;-58
2023/08/10 00:23:48;;;;;;;1.00;1.00;;;16.40;99.90;;;;;;4173375;28;20083;-58
2023/08/10 00:26:08;;;;;;;1.10;1.10;;;16.30;99.90;;;;;;4171844;28;20052;-58
2023/08/10 00:28:29;;;;;;;2.15;1.13;;;16.30;99.90;;;;;;4173288;28;20056;-58
2023/08/10 00:30:48;;;;;;;1.48;1.08;;;16.20;99.90;;;;;;4173671;28;20057;-58
2023/08/10 00:33:09;;;;;;;2.33;1.30;;;16.20;99.90;;;;;;4172136;28;20455;-58
2023/08/10 00:35:40;;;;;;;2.10;1.42;;;16.20;99.90;;;;;;4173061;28;20170;-58
2023/08/10 00:38:00;;;;;;;1.10;1.10;;;16.20;99.90;;;;;;4172337;28;20075;-58
2023/08/10 00:40:20;;;;;;;1.38;1.38;;;16.30;99.90;;;;;;4172692;28;20048;-58
2023/08/10 00:42:39;;;;;;;1.13;1.13;;;16.30;99.90;;;;;;4170967;28;20048;-58
2023/08/10 00:44:59;;;;;;;1.13;1.13;;;16.00;99.90;;;;;;4172893;28;20071;-58
2023/08/10 00:47:19;;;;;;;1.60;1.10;;;16.00;99.90;;;;;;4173333;28;20386;-58
2023/08/10 00:49:40;;;;;;;1.15;1.05;;;16.00;99.90;;;;;;4170710;28;20111;-58
2023/08/10 00:52:00;;;;;;;1.30;1.20;;;15.80;99.90;;;;;;4173759;28;20049;-59
2023/08/10 00:54:20;;;;;;;1.20;1.20;;;15.80;99.90;;;;;;4170700;28;20048;-58
2023/08/10 00:56:39;;;;;;;1.15;1.13;;;15.80;99.90;;;;;;4172259;28;20084;-58
2023/08/10 00:59:00;;;;;;;1.08;1.00;;;15.70;99.90;;;;;;4172849;28;20109;-58
2023/08/10 01:01:20;;;;;;;1.08;1.08;;;15.70;99.90;;;;;;4172225;28;20083;-58
2023/08/10 01:03:40;;;;;;;1.20;1.20;;;15.70;99.90;;;;;;4171756;28;20121;-58
2023/08/10 01:06:19;;;;;;;1.10;1.10;;;15.70;99.90;;;;;;4171803;28;20240;-58
2023/08/10 01:08:53;;;;;;;1.13;1.13;;;15.80;99.90;;;;;;4173343;28;20048;-58
2023/08/10 01:11:42;;;;;;;1.95;1.30;;;15.70;99.90;;;;;;4172267;28;20390;-58
2023/08/10 01:14:28;;;;;;;1.40;1.40;;;15.70;99.90;;;;;;4168551;28;20057;-58
2023/08/10 01:16:50;;;;;;;1.45;1.30;;;15.60;99.90;;;;;;4173223;28;20072;-58
2023/08/10 01:19:30;;;;;;;1.27;1.13;;;15.60;99.90;;;;;;4172502;28;20044;-58
2023/08/10 01:22:05;;;;;;;1.70;1.60;;;15.40;99.90;;;;;;4172834;28;20052;-58
2023/08/10 01:24:30;;;;;;;1.27;1.27;;;15.20;99.90;;;;;;4169918;28;20036;-58
2023/08/10 01:26:53;;;;;;;1.25;1.25;;;15.20;99.90;;;;;;4173019;28;20271;-58
2023/08/10 01:29:15;;;;;;;1.20;1.20;;;15.20;99.90;;;;;;4172235;28;20044;-58
2023/08/10 01:31:35;;;;;;;1.23;1.23;;;15.20;99.90;;;;;;4172792;28;20051;-58
2023/08/10 01:33:55;;;;;;;1.75;1.65;;;15.30;99.90;;;;;;4171727;28;20056;-58
2023/08/10 01:36:15;;;;;;;1.67;1.58;;;15.30;99.90;;;;;;4172104;28;20371;-58
2023/08/10 01:38:34;;;;;;;1.30;1.30;;;15.30;99.90;;;;;;4170602;28;20044;-58
2023/08/10 01:40:54;;;;;;;2.25;1.52;;;15.30;99.90;;;;;;4172094;28;20228;-58
2023/08/10 01:43:14;;;;;;;2.38;1.50;;;15.30;99.90;;;;;;4171089;28;20044;-58
2023/08/10 01:45:34;;;;;;;2.00;1.52;;;15.20;99.90;;;;;;4173106;28;20281;-58
2023/08/10 01:48:04;;;;;;;3.72;1.52;;;15.10;99.90;;;;;;4172506;28;20056;-58
2023/08/10 01:50:26;;;;;;;1.58;1.42;;;14.90;99.90;;;;;;4170203;28;20044;-58
2023/08/10 01:52:51;;;;;;;1.40;1.30;;;15.00;99.90;;;;;;4172918;28;20079;-58
2023/08/10 01:55:13;;;;;;;1.40;1.40;;;15.00;99.90;;;;;;4172064;28;20135;-58
2023/08/10 01:57:33;;;;;;;3.22;1.30;;;15.00;99.90;;;;;;4172800;28;20091;-58
2023/08/10 01:59:53;;;;;;;3.40;1.40;;;15.10;99.90;;;;;;4172136;28;20394;-58
2023/08/10 02:02:13;;;;;;;1.30;1.30;;;15.10;99.90;;;;;;4171312;28;20300;-58
2023/08/10 02:04:33;;;;;;;1.30;1.30;;;15.00;99.90;;;;;;4171000;28;20378;-58
2023/08/10 02:06:53;;;;;;;1.50;1.40;;;15.00;99.90;;;;;;4171798;28;20044;-58
2023/08/10 02:09:13;;;;;;;3.10;1.20;;;14.80;99.90;;;;;;4160028;28;20053;-58
2023/08/10 02:11:33;;;;;;;1.70;1.60;;;14.90;99.90;;;;;;4165140;28;20105;-58
2023/08/10 02:13:53;;;;;;;2.25;2.15;;;14.90;99.90;;;;;;4171679;28;20072;-58
2023/08/10 02:16:12;;;;;;;1.92;1.83;;;14.90;99.90;;;;;;4172665;28;20047;-58
2023/08/10 02:18:32;;;;;;;5.28;1.75;;;14.90;99.90;;;;;;4172741;28;20064;-58
2023/08/10 02:20:52;;;;;;;1.30;1.20;;;14.70;99.90;;;;;;4172265;28;20049;-58
2023/08/10 02:23:12;;;;;;;1.40;1.40;;;14.50;99.90;;;;;;4171655;28;20052;-58
2023/08/10 02:25:32;;;;;;;1.55;1.52;;;14.40;99.90;;;;;;4172546;28;20101;-58
2023/08/10 02:27:52;;;;;;;1.45;1.45;;;14.40;99.90;;;;;;4171728;28;20056;-58
2023/08/10 02:30:14;;;;;;;2.60;1.42;;;14.50;99.90;;;;;;4172049;28;20113;-58
2023/08/10 02:32:34;;;;;;;2.92;2.00;;;14.40;99.90;;;;;;4171367;28;20096;-58
2023/08/10 02:34:54;;;;;;;1.55;1.55;;;14.40;99.90;;;;;;4172154;28;20072;-58
2023/08/10 02:37:14;;;;;;;2.40;2.20;;;14.40;99.90;;;;;;4171109;28;20341;-58
2023/08/10 02:39:34;;;;;;;2.17;2.08;;;14.50;99.90;;;;;;4167470;28;20107;-58
2023/08/10 02:41:55;;;;;;;1.90;1.80;;;14.50;99.90;;;;;;4171938;28;20049;-58
2023/08/10 02:44:15;;;;;;;1.60;1.60;;;14.50;99.90;;;;;;4170671;28;20053;-58
2023/08/10 02:46:35;;;;;;;4.55;1.90;;;14.50;99.90;;;;;;4167724;28;20044;-58
2023/08/10 02:48:54;;;;;;;1.33;1.27;;;14.30;99.90;;;;;;4172201;28;20044;-58
2023/08/10 02:51:14;;;;;;;2.22;1.70;;;14.30;99.90;;;;;;4168470;28;20064;-58
2023/08/10 02:53:34;;;;;;;4.22;2.00;;;14.20;99.90;;;;;;4172213;28;20278;-58
2023/08/10 02:55:54;;;;;;;1.80;1.70;;;14.20;99.90;;;;;;4174100;28;20048;-58
2023/08/10 02:58:14;;;;;;;1.45;1.45;;;14.20;99.90;;;;;;4174332;28;20051;-58
2023/08/10 03:00:33;;;;;;;1.45;1.35;;;14.20;99.90;;;;;;4174161;28;20383;-58
2023/08/10 03:02:53;;;;;;;1.52;1.42;;;14.10;99.90;;;;;;4172725;28;20048;-58
2023/08/10 03:05:13;;;;;;;1.50;1.50;;;14.20;99.90;;;;;;4171223;28;20069;-58
2023/08/10 03:07:33;;;;;;;2.17;2.08;;;14.20;99.90;;;;;;4171408;28;20396;-58
2023/08/10 03:09:53;;;;;;;1.65;1.65;;;14.20;99.90;;;;;;4165911;28;20139;-58
2023/08/10 03:12:13;;;;;;;1.45;1.45;;;14.30;99.90;;;;;;4174329;28;20045;-58
2023/08/10 03:14:33;;;;;;;3.00;1.95;;;14.30;99.90;;;;;;4171810;28;20056;-58
2023/08/10 03:16:53;;;;;;;1.52;1.52;;;14.30;99.90;;;;;;4174748;28;20075;-58
2023/08/10 03:19:12;;;;;;;1.95;1.40;;;14.20;99.90;;;;;;4174905;28;20084;-58
2023/08/10 03:21:32;;;;;;;1.85;1.75;;;14.10;99.90;;;;;;4172796;28;20395;-58
2023/08/10 03:23:52;;;;;;;1.40;1.40;;;14.10;99.90;;;;;;4174449;28;20063;-58
2023/08/10 03:26:12;;;;;;;1.83;1.70;;;14.00;99.90;;;;;;4174632;28;20041;-58
2023/08/10 03:28:31;;;;;;;2.63;2.42;;;14.00;99.90;;;;;;4173944;28;20276;-58
2023/08/10 03:30:51;;;;;;;1.52;1.52;;;14.00;99.90;;;;;;4174333;28;20271;-58
2023/08/10 03:33:11;;;;;;;1.58;1.58;;;14.00;99.90;;;;;;4174625;28;20056;-58
2023/08/10 03:35:31;;;;;;;1.38;1.35;;;14.00;99.90;;;;;;4173546;28;20044;-58
2023/08/10 03:37:51;;;;;;;1.40;1.40;;;14.00;99.90;;;;;;4174021;28;20053;-58
2023/08/10 03:40:11;;;;;;;4.90;1.55;;;14.00;99.90;;;;;;4171293;28;20044;-58
2023/08/10 03:42:31;;;;;;;2.47;2.17;;;14.00;99.90;;;;;;4174820;28;20047;-58
2023/08/10 03:44:54;;;;;;;2.10;2.00;;;13.80;99.90;;;;;;4172514;28;20062;-58
2023/08/10 03:47:14;;;;;;;2.63;2.53;;;13.80;99.90;;;;;;4174590;28;20107;-58
2023/08/10 03:49:35;;;;;;;3.00;2.05;;;13.70;99.90;;;;;;4174518;28;20068;-58
2023/08/10 03:51:55;;;;;;;2.15;2.15;;;13.60;99.90;;;;;;4171534;28;20084;-58
2023/08/10 03:54:14;;;;;;;2.30;2.30;;;13.40;99.90;;;;;;4174277;28;20079;-58
2023/08/10 03:56:34;;;;;;;2.13;2.13;;;13.40;99.90;;;;;;4174200;28;20232;-58
2023/08/10 03:58:54;;;;;;;1.63;1.63;;;13.50;99.90;;;;;;4173882;28;20080;-58
2023/08/10 04:01:15;;;;;;;2.80;1.95;;;13.70;99.90;;;;;;4174061;28;20052;-58
2023/08/10 04:03:34;;;;;;;1.92;1.92;;;13.70;99.90;;;;;;4169721;28;20232;-58
2023/08/10 04:05:55;;;;;;;2.50;2.30;;;13.70;99.90;;;;;;4174111;28;20044;-58
2023/08/10 04:08:15;;;;;;;2.25;2.25;;;13.60;99.90;;;;;;4173421;28;20128;-58
2023/08/10 04:10:35;;;;;;;2.38;2.30;;;13.50;99.90;;;;;;4171394;28;20092;-58
2023/08/10 04:12:55;;;;;;;2.63;2.63;;;13.30;99.90;;;;;;4173809;28;20139;-58
2023/08/10 04:15:15;;;;;;;3.47;3.20;;;13.30;99.90;;;;;;4171541;28;20053;-58
2023/08/10 04:17:36;;;;;;;2.10;2.10;;;13.30;99.90;;;;;;4169970;28;20048;-58
2023/08/10 04:19:56;;;;;;;3.20;2.60;;;13.40;99.90;;;;;;4174004;28;20296;-58
2023/08/10 04:22:17;;;;;;;2.30;2.20;;;13.50;99.90;;;;;;4170832;28;20091;-58
2023/08/10 04:24:37;;;;;;;1.90;1.88;;;13.30;99.90;;;;;;4172970;28;20093;-58
2023/08/10 04:26:57;;;;;;;3.10;3.00;;;13.20;99.90;;;;;;4171324;28;20041;-58
2023/08/10 04:29:17;;;;;;;3.17;2.97;;;13.20;99.90;;;;;;4172844;28;20088;-58
2023/08/10 04:31:37;;;;;;;3.00;3.00;;;13.20;99.90;;;;;;4172160;28;20372;-58
2023/08/10 04:33:56;;;;;;;2.85;2.65;;;13.10;99.90;;;;;;4167136;28;20056;-58
2023/08/10 04:36:16;;;;;;;2.88;2.67;;;13.10;99.90;;;;;;4173170;28;20064;-58
2023/08/10 04:38:36;;;;;;;3.85;3.70;;;13.30;99.90;;;;;;4173674;28;20052;-58
2023/08/10 04:40:55;;;;;;;3.10;2.80;;;13.40;99.90;;;;;;4165386;28;20372;-58
2023/08/10 04:43:15;;;;;;;2.85;2.70;;;13.50;99.90;;;;;;4172403;28;20260;-58
2023/08/10 04:45:35;;;;;;;2.88;2.78;;;13.50;99.90;;;;;;4173659;28;20303;-58
2023/08/10 04:47:55;;;;;;;2.75;2.47;;;13.40;99.90;;;;;;4173093;28;20103;-58
2023/08/10 04:50:15;;;;;;;3.30;3.15;;;13.40;99.90;;;;;;4170278;28;20440;-58
2023/08/10 04:52:36;;;;;;;2.05;2.00;;;13.40;99.90;;;;;;4173574;28;20403;-58
2023/08/10 04:54:56;;;;;;;1.88;1.73;;;13.60;99.90;;;;;;4172866;28;20052;-58
2023/08/10 04:57:16;;;;;;;1.77;1.77;;;13.70;99.90;;;;;;4172461;28;20072;-58
2023/08/10 04:59:36;;;;;;;2.65;2.55;;;13.70;99.90;;;;;;4171749;28;20044;-58
2023/08/10 05:01:56;;;;;;;2.50;2.40;;;13.50;99.90;;;;;;4172593;28;20056;-58
2023/08/10 05:04:17;;;;;;;2.08;2.05;;;13.50;99.90;;;;;;4163908;28;20370;-58
2023/08/10 05:06:37;;;;;;;2.90;2.47;;;13.60;99.90;;;;;;4173445;28;20379;-58
2023/08/10 05:08:57;;;;;;;3.35;3.25;;;13.40;99.90;;;;;;4173534;28;20052;-58
2023/08/10 05:11:17;;;;;;;4.13;3.78;;;13.20;99.90;;;;;;4171159;28;20041;-58
2023/08/10 05:13:36;;;;;;;4.50;4.22;;;13.10;99.90;;;;;;4172582;28;20048;-58
2023/08/10 05:15:56;;;;;;;6.05;5.47;;;13.10;99.90;;;;;;4172831;28;20116;-58
2023/08/10 05:18:20;;;;;;;2.78;2.67;;;13.30;99.90;;;;;;4172060;28;20056;-58
2023/08/10 05:20:39;;;;;;;3.60;3.45;;;13.40;99.90;;;;;;4172173;28;20082;-58
2023/08/10 05:23:00;;;;;;;2.90;2.80;;;13.40;99.90;;;;;;4171547;28;20095;-58
2023/08/10 05:25:19;;;;;;;3.00;2.72;;;13.40;99.90;;;;;;4172066;28;20057;-58
2023/08/10 05:27:40;;;;;;;1.75;1.75;;;13.40;99.90;;;;;;4173052;28;20124;-58
2023/08/10 05:30:00;;;;;;;2.00;1.90;;;13.50;99.90;;;;;;4172227;28;20048;-58
2023/08/10 05:32:20;;;;;;;2.35;2.25;;;13.60;99.90;;;;;;4172119;28;20378;-58
2023/08/10 05:34:40;;;;;;;2.35;1.70;;;13.80;99.90;;;;;;4169542;28;20045;-58
2023/08/10 05:37:01;;;;;;;2.05;2.00;;;13.90;99.90;;;;;;4170791;28;20139;-59
2023/08/10 05:39:21;;;;;;;3.55;1.75;;;14.10;99.90;;;;;;4172424;28;20091;-59
2023/08/10 05:41:41;;;;;;;2.65;1.45;;;14.20;99.90;;;;;;4169690;28;20048;-58
2023/08/10 05:44:01;;;;;;;2.15;1.95;;;14.30;99.90;;;;;;4169801;28;20063;-59
2023/08/10 05:46:20;;;;;;;2.85;1.67;;;14.10;99.90;;;;;;4170835;28;20063;-59
2023/08/10 05:48:41;;;;;;;2.40;2.30;;;14.00;99.90;;;;;;4172819;28;20063;-59
2023/08/10 05:51:03;;;;;;;2.35;1.90;;;14.00;99.90;;;;;;4174514;28;20052;-59
2023/08/10 05:53:23;;;;;;;2.67;2.40;;;14.00;99.90;;;;;;4171897;28;20091;-59
2023/08/10 05:55:43;;;;;;;2.38;2.28;;;14.10;99.90;;;;;;4172899;28;20079;-59
2023/08/10 05:58:03;;;;;;;1.80;1.70;;;14.20;99.90;;;;;;4171515;28;20060;-59
2023/08/10 06:00:23;;;;;;;1.65;1.65;;;14.20;99.90;;;;;;4172840;28;20096;-59
2023/08/10 06:02:45;;;;;;;1.98;1.88;;;14.30;99.90;;;;;;4171639;28;20057;-59
2023/08/10 06:05:06;;;;;;;1.58;1.48;;;14.30;99.90;;;;;;4166764;28;20359;-59
2023/08/10 06:07:26;;;;;;;1.63;1.63;;;14.70;99.90;;;;;;4166036;28;20240;-59
2023/08/10 06:09:46;;;;;;;1.67;1.67;;;14.70;99.90;;;;;;4171540;28;20047;-59
2023/08/10 06:12:06;;;;;;;1.30;1.30;;;14.80;99.90;;;;;;4172766;28;20044;-59
2023/08/10 06:14:26;;;;;;;1.75;1.65;;;14.90;99.90;;;;;;4171885;28;20088;-59
2023/08/10 06:16:46;;;;;;;1.70;1.60;;;15.00;99.90;;;;;;4170029;28;20091;-59
2023/08/10 06:19:06;;;;;;;1.40;1.40;;;15.10;99.90;;;;;;4172309;28;20045;-61
2023/08/10 06:21:27;;;;;;;1.45;1.35;;;15.10;99.90;;;;;;4172408;28;20387;-59
2023/08/10 06:23:47;;;;;;;2.10;2.00;;;15.30;99.90;;;;;;4172663;28;20088;-58
2023/08/10 06:26:07;;;;;;;1.50;1.50;;;15.50;99.90;;;;;;4171876;28;20228;-59
2023/08/10 06:28:27;;;;;;;0.98;0.93;;;15.80;99.90;;;;;;4168877;28;20141;-58
2023/08/10 06:30:47;;;;;;;1.25;1.25;;;16.10;99.90;;;;;;4174300;28;20044;-59
2023/08/10 06:33:08;;;;;;;1.70;1.20;;;16.30;99.90;;;;;;4175572;28;20052;-59
2023/08/10 06:35:28;;;;;;;1.52;1.38;;;16.40;99.90;;;;;;4172474;28;20080;-59
2023/08/10 06:37:50;;;;;;;1.38;1.27;;;16.90;99.90;;;;;;4175466;28;20048;-58
2023/08/10 06:40:11;;;;;;;1.50;1.10;;;17.10;99.90;;;;;;4173243;28;20060;-58
2023/08/10 06:42:31;;;;;;;4.47;1.15;;;17.50;99.90;;;;;;4172390;28;20087;-59
2023/08/10 06:44:51;;;;;;;2.67;1.17;;;17.60;99.90;;;;;;4173462;28;20148;-59
2023/08/10 06:47:11;;;;;;;2.03;1.10;;;17.50;99.90;;;;;;4173927;28;20092;-59
2023/08/10 06:49:31;;;;;;;2.15;1.33;;;17.50;99.90;;;;;;4175303;28;20079;-59
2023/08/10 06:51:51;;;;;;;3.33;1.30;;;17.80;99.90;;;;;;4175455;28;20053;-58
2023/08/10 06:54:11;;;;;;;1.00;1.00;;;18.10;99.90;;;;;;4174965;28;20052;-58
2023/08/10 06:56:31;;;;;;;1.00;1.00;;;18.60;99.90;;;;;;4174341;28;20060;-59
2023/08/10 06:58:51;;;;;;;0.90;0.90;;;18.50;99.90;;;;;;4173328;28;20048;-60
2023/08/10 07:01:16;;;;;;;1.77;1.10;;;18.50;99.90;;;;;;4172669;28;20044;-58
2023/08/10 07:03:36;;;;;;;1.10;1.10;;;18.60;99.90;;;;;;4175143;28;20045;-58
2023/08/10 07:05:56;;;;;;;1.40;1.00;;;19.10;99.90;;;;;;4174878;28;20035;-58
2023/08/10 07:08:16;;;;;;;1.35;1.25;;;19.20;99.90;;;;;;4173564;28;20064;-59
2023/08/10 07:10:37;;;;;;;3.05;1.00;;;19.30;99.90;;;;;;4172863;28;20355;-58
2023/08/10 07:12:57;;;;;;;1.00;1.00;;;19.50;99.90;;;;;;4174535;28;20399;-58
2023/08/10 07:15:17;;;;;;;1.90;1.10;;;19.50;99.90;;;;;;4174244;28;20130;-58
2023/08/10 07:17:37;;;;;;;1.70;0.90;;;19.70;99.90;;;;;;4172998;28;20047;-59
2023/08/10 07:19:57;;;;;;;0.90;0.90;;;19.70;99.90;;;;;;4174093;28;20101;-59
2023/08/10 07:22:16;;;;;;;1.13;1.00;;;19.80;99.90;;;;;;4174690;28;20156;-59
2023/08/10 07:24:36;;;;;;;0.80;0.80;;;20.00;99.90;;;;;;4171122;28;20053;-59
2023/08/10 07:26:57;;;;;;;1.00;1.00;;;20.20;99.90;;;;;;4174790;28;20076;-59
2023/08/10 07:29:17;;;;;;;0.90;0.90;;;20.60;99.20;;;;;;4171036;28;20051;-59
2023/08/10 07:31:37;;;;;;;0.90;0.90;;;20.70;98.30;;;;;;4174076;28;20367;-59
2023/08/10 07:34:00;;;;;;;1.08;0.90;;;20.70;99.20;;;;;;4174148;28;20080;-58
2023/08/10 07:36:19;;;;;;;;;;;20.70;98.80;;;;;;4174658;28;20272;-59
2023/08/10 07:38:39;;;;;;;2.45;0.90;;;20.80;98.70;;;;;;4174711;28;19924;-58
2023/08/10 07:41:01;;;;;;;2.00;0.90;;;20.90;98.60;;;;;;4171805;28;20044;-59
2023/08/10 07:43:21;;;;;;;1.42;0.90;;;21.10;98.30;;;;;;4173087;28;20068;-59
2023/08/10 07:45:41;;;;;;;0.90;0.90;;;21.20;97.70;;;;;;4174427;28;20048;-59
2023/08/10 07:48:01;;;;;;;0.98;0.90;;;21.30;96.70;;;;;;4173637;28;20248;-59
2023/08/10 07:50:21;;;;;;;1.13;0.90;;;21.30;94.80;;;;;;4173376;28;20256;-59
2023/08/10 07:52:41;;;;;;;4.72;0.90;;;21.60;94.80;;;;;;4174367;28;20093;-59
2023/08/10 07:55:01;;;;;;;0.80;0.80;;;22.10;96.10;;;;;;4174476;28;20048;-59
2023/08/10 07:57:21;;;;;;;1.08;0.80;;;22.40;94.80;;;;;;4174358;28;20080;-58
2023/08/10 07:59:41;;;;;;;2.92;0.80;;;22.70;95.00;;;;;;4165996;28;20455;-58
2023/08/10 08:02:03;;;;;;;1.63;1.10;;;22.60;94.50;;;;;;4173058;28;20121;-59
2023/08/10 08:04:24;;;;;;;2.15;0.80;;;22.80;95.10;;;;;;4172959;28;20103;-59
2023/08/10 08:06:44;;;;;;;1.67;0.90;;;23.30;94.30;;;;;;4175138;28;20052;-58
2023/08/10 08:09:06;;;;;;;1.58;0.90;;;23.60;95.90;;;;;;4168680;28;20048;-58
2023/08/10 08:11:26;;;;;;;0.70;0.70;;;23.60;94.30;;;;;;4173607;28;20055;-58
2023/08/10 08:13:45;;;;;;;0.80;0.80;;;23.70;94.90;;;;;;4172073;28;20120;-58
2023/08/10 08:16:06;;;;;;;1.45;1.10;;;23.60;93.20;;;;;;4174205;28;20055;-59
2023/08/10 08:18:48;;;;;;;1.08;0.80;;;23.30;93.30;;;;;;4173585;28;20053;-58
2023/08/10 08:21:14;;;;;;;1.25;1.15;;;23.70;93.00;;;;;;4173968;28;20060;-58
2023/08/10 08:23:33;;;;;;;0.82;0.80;;;23.60;93.00;;;;;;4172911;28;20049;-58
2023/08/10 08:25:53;;;;;;;0.80;0.80;;;23.80;92.10;;;;;;4173160;28;20061;-58
2023/08/10 08:28:13;;;;;;;2.90;0.75;;;23.90;94.00;;;;;;4174009;28;20284;-58
2023/08/10 08:30:33;;;;;;;0.80;0.80;;;24.20;92.40;;;;;;4173978;28;20044;-58
2023/08/10 08:32:53;;;;;;;0.70;0.70;;;24.10;91.50;;;;;;4172777;28;20052;-58
2023/08/10 08:35:13;;;;;;;3.38;1.45;;;24.40;92.10;;;;;;4172863;28;20100;-58
2023/08/10 08:37:33;;;;;;;0.70;0.70;;;25.10;90.90;;;;;;4170133;28;20375;-59
2023/08/10 08:39:54;;;;;;;1.88;0.70;;;25.70;92.30;;;;;;4171239;28;20088;-58
2023/08/10 08:42:13;;;;;;;1.35;0.70;;;25.90;91.70;;;;;;4173828;28;20036;-59
2023/08/10 08:44:33;;;;;;;3.92;0.80;;;26.10;92.00;;;;;;4173851;28;20247;-58
2023/08/10 08:46:53;;;;;;;0.98;0.70;;;26.60;93.20;;;;;;4172942;28;20105;-59
2023/08/10 08:49:15;;;;;;;2.20;0.70;;;26.80;90.30;;;;;;4173257;28;20083;-59
2023/08/10 08:51:36;;;;;;;0.70;0.70;;;26.60;90.20;;;;;;4170627;28;20053;-59
2023/08/10 08:54:01;;;;;;;0.68;0.60;;;26.70;90.50;;;;;;4169085;28;20087;-59
2023/08/10 08:56:21;;;;;;;1.25;0.60;;;26.90;90.50;;;;;;4173261;28;20113;-58
2023/08/10 08:58:41;;;;;;;1.27;0.68;;;27.10;89.00;;;;;;4173250;28;20240;-59
2023/08/10 09:01:01;;;;;;;1.55;0.60;;;26.80;88.10;;;;;;4166675;28;20354;-58
2023/08/10 09:03:26;;;;;;;1.15;0.60;;;27.30;89.40;;;;;;4173142;28;20076;-58
2023/08/10 09:05:46;;;;;;;1.75;0.60;;;27.60;89.50;;;;;;4172106;28;20229;-58
2023/08/10 09:08:06;;;;;;;2.80;0.57;;;27.50;87.60;;;;;;4173212;28;20240;-59
2023/08/10 09:10:27;;;;;;;0.60;0.60;;;27.70;90.00;;;;;;4172087;28;20099;-59
2023/08/10 09:12:48;;;;;;;1.30;0.60;;;27.60;85.80;;;;;;4172079;28;20059;-59
2023/08/10 09:15:09;;;;;;;0.60;0.60;;;27.60;88.40;;;;;;4171100;28;20084;-58
2023/08/10 09:17:29;;;;;;;0.93;0.60;;;27.10;84.80;;;;;;4173141;28;20416;-59
2023/08/10 09:19:49;;;;;;;1.65;0.80;;;27.10;86.00;;;;;;4168861;28;20434;-59
2023/08/10 09:22:08;;;;;;;3.83;0.60;;;27.30;88.20;;;;;;4172725;28;20374;-59
2023/08/10 09:24:29;;;;;;;2.25;0.93;;;27.80;90.50;;;;;;4164759;28;20364;-58
2023/08/10 09:26:51;;;;;;;1.23;0.60;;;27.60;84.70;;;;;;4164918;28;20056;-59
2023/08/10 09:29:11;;;;;;;0.50;0.50;;;27.90;87.60;;;;;;4171261;28;20375;-59
2023/08/10 09:31:31;;;;;;;2.92;0.60;;;28.60;86.50;;;;;;4171774;28;20080;-59
2023/08/10 09:34:04;;;;;;;0.98;0.63;;;28.80;83.70;;;;;;4173085;28;20147;-59
2023/08/10 09:36:26;;;;;;;2.20;0.80;;;28.80;82.10;;;;;;4171839;28;20044;-58
2023/08/10 09:38:50;;;;;;;;;;;28.70;80.60;;;;;;4173360;28;20045;-58
2023/08/10 09:41:13;;;;;;;1.92;0.60;;;28.50;80.80;;;;;;4172782;28;19924;-58
2023/08/10 09:43:32;;;;;;;0.60;0.60;;;28.20;83.20;;;;;;4171355;28;20044;-59
2023/08/10 09:46:04;;;;;;;0.68;0.55;;;28.50;83.60;;;;;;4171792;28;20108;-58
2023/08/10 09:48:32;;;;;;;2.47;0.60;;;28.80;82.20;;;;;;4168084;28;20367;-58
2023/08/10 09:50:54;;;;;;;3.60;0.60;;;28.70;79.70;;;;;;4172013;28;20106;-59
2023/08/10 09:53:15;;;;;;;1.65;0.50;;;28.80;83.10;;;;;;4172682;28;20053;-58
2023/08/10 09:55:35;;;;;;;1.15;0.50;;;28.90;79.90;;;;;;4169545;28;20448;-58
2023/08/10 09:57:55;;;;;;;0.60;0.60;;;28.50;81.10;;;;;;4172876;28;20056;-58
2023/08/10 10:00:18;;;;;;;0.60;0.60;;;29.00;82.50;;;;;;4171430;28;20065;-58
2023/08/10 10:02:39;;;;;;;0.60;0.50;;;29.20;82.80;;;;;;4170230;28;20119;-58
2023/08/10 10:04:59;;;;;;;1.33;0.50;;;29.30;80.50;;;;;;4172568;28;20049;-58
2023/08/10 10:07:27;;;;;;;1.10;0.50;;;29.40;80.30;;;;;;4170795;28;20045;-58
2023/08/10 10:09:49;;;;;;;1.42;0.60;;;29.20;78.30;;;;;;4171560;28;20083;-58
2023/08/10 10:12:11;;;;;;;0.50;0.50;;;29.30;78.80;;;;;;4169946;28;20088;-58
2023/08/10 10:14:32;;;;;;;1.17;0.50;;;29.30;79.20;;;;;;4172433;28;20052;-58
2023/08/10 10:16:52;;;;;;;0.50;0.50;;;29.50;82.70;;;;;;4172669;28;20403;-58
2023/08/10 10:19:13;;;;;;;3.35;0.70;;;30.30;83.20;;;;;;4168374;28;20145;-58
2023/08/10 10:21:33;;;;;;;4.38;0.50;;;30.50;80.40;;;;;;4167228;28;20040;-58
2023/08/10 10:23:58;;;;;;;1.65;0.60;;;30.80;79.90;;;;;;4171628;28;20040;-59
2023/08/10 10:26:19;;;;;;;1.67;0.50;;;30.90;79.70;;;;;;4171674;28;20280;-58
2023/08/10 10:28:40;;;;;;;3.30;0.50;;;30.80;76.00;;;;;;4171680;28;20105;-58
2023/08/10 10:31:08;;;;;;;0.50;0.50;;;31.20;76.80;;;;;;4167495;28;20040;-58
2023/08/10 10:33:28;;;;;;;0.40;0.40;;;31.30;78.40;;;;;;4172059;28;20071;-58
2023/08/10 10:36:14;;;;;;;0.50;0.50;;;31.40;76.30;;;;;;4171267;28;20048;-59
2023/08/10 10:38:47;;;;;;;0.43;0.43;;;31.30;74.10;;;;;;4177704;28;20056;-58
2023/08/10 10:41:17;;;;;;;0.40;0.40;;;31.20;77.20;;;;;;4172619;28;20060;-58
2023/08/10 10:43:38;;;;;;;0.60;0.60;;;30.90;75.30;;;;;;4172379;28;20063;-58
2023/08/10 10:45:58;;;;;;;1.98;0.50;;;31.10;73.80;;;;;;4170935;28;20084;-58
2023/08/10 10:48:35;;;;;;;0.60;0.40;;;30.90;78.90;;;;;;4170383;28;20044;-58
2023/08/10 10:50:57;;;;;;;0.55;0.43;;;30.70;73.40;;;;;;4176760;28;20127;-58
2023/08/10 10:53:23;;;;;;;1.10;0.47;;;30.70;73.90;;;;;;4168684;28;20080;-58
2023/08/10 10:55:45;;;;;;;2.15;0.40;;;30.70;74.70;;;;;;4171533;28;20269;-58
2023/08/10 10:58:07;;;;;;;0.50;0.50;;;30.30;76.20;;;;;;4171187;28;20095;-58
2023/08/10 11:00:27;;;;;;;0.40;0.40;;;30.70;80.20;;;;;;4169802;28;20089;-58
2023/08/10 11:02:47;;;;;;;0.88;0.40;;;31.20;73.70;;;;;;4172211;28;20368;-58
2023/08/10 11:05:13;;;;;;;0.73;0.45;;;31.30;74.40;;;;;;4170898;28;20100;-58
2023/08/10 11:07:40;;;;;;;0.95;0.50;;;31.90;76.00;;;;;;4171386;28;20052;-58
2023/08/10 11:10:10;;;;;;;1.38;0.40;;;31.70;72.80;;;;;;4170376;28;20048;-58
2023/08/10 11:12:30;;;;;;;1.75;0.40;;;31.60;75.40;;;;;;4171838;28;20104;-58
2023/08/10 11:14:50;;;;;;;0.40;0.40;;;31.60;73.70;;;;;;4169256;28;20234;-58
2023/08/10 11:17:10;;;;;;;0.45;0.43;;;31.30;73.90;;;;;;4169597;28;20229;-58
2023/08/10 11:19:33;;;;;;;0.45;0.45;;;31.60;73.30;;;;;;4174793;28;20080;-58
2023/08/10 11:21:53;;;;;;;0.52;0.40;;;31.50;72.50;;;;;;4174005;28;20041;-58
2023/08/10 11:24:13;;;;;;;0.47;0.45;;;31.60;74.50;;;;;;4174353;28;20052;-58
2023/08/10 11:26:34;;;;;;;2.17;0.50;;;31.20;74.30;;;;;;4174506;28;20052;-58
2023/08/10 11:28:53;;;;;;;0.95;0.50;;;30.70;71.90;;;;;;4172586;28;20324;-58
2023/08/10 11:31:14;;;;;;;1.60;0.40;;;31.20;73.30;;;;;;4173186;28;20048;-58
2023/08/10 11:33:36;;;;;;;1.23;0.40;;;31.50;70.70;;;;;;4171864;28;20110;-58
2023/08/10 11:35:56;;;;;;;0.40;0.40;;;32.00;76.10;;;;;;4172834;28;20040;-58
2023/08/10 11:38:16;;;;;;;1.02;0.57;;;32.50;75.40;;;;;;4174839;28;20417;-58
2023/08/10 11:40:36;;;;;;;1.42;0.40;;;32.60;74.50;;;;;;4173363;28;20236;-59
2023/08/10 11:43:10;;;;;;;3.13;0.45;;;33.00;71.90;;;;;;4174403;28;20056;-58
2023/08/10 11:45:30;;;;;;;0.40;0.40;;;32.90;74.60;;;;;;4174497;28;20060;-59
2023/08/10 11:47:54;;;;;;;0.50;0.40;;;33.60;71.10;;;;;;4174607;28;20044;-58
2023/08/10 11:50:26;;;;;;;0.40;0.40;;;33.80;69.80;;;;;;4173701;28;20083;-58
2023/08/10 11:52:46;;;;;;;0.70;0.40;;;32.80;71.10;;;;;;4173815;28;20105;-58
2023/08/10 11:55:15;;;;;;;1.30;0.40;;;33.30;68.40;;;;;;4171514;28;20083;-59
2023/08/10 11:57:42;;;;;;;0.45;0.45;;;32.60;68.10;;;;;;4173724;28;20051;-59
2023/08/10 12:00:22;;;;;;;0.40;0.40;;;32.40;68.00;;;;;;4174357;28;20040;-59
2023/08/10 12:02:58;;;;;;;0.40;0.40;;;32.10;71.10;;;;;;4174078;28;20075;-59
2023/08/10 12:05:52;;;;;;;0.40;0.40;;;32.30;67.50;;;;;;4173864;28;20103;-58
2023/08/10 12:08:30;;;;;;;0.40;0.40;;;32.50;67.70;;;;;;4173814;28;20088;-58
2023/08/10 12:11:04;;;;;;;0.80;0.80;;;32.80;71.20;;;;;;4173701;28;20056;-58
2023/08/10 12:13:26;;;;;;;0.95;0.40;;;33.50;68.50;;;;;;4170384;28;20066;-59
2023/08/10 12:15:48;;;;;;;0.30;0.30;;;33.10;67.00;;;;;;4167427;28;20056;-59
2023/08/10 12:18:08;;;;;;;1.42;0.50;;;32.90;67.80;;;;;;4173228;28;20101;-59